Strona główna
METAR-TAF:

METAR-TAF

Lotnisko :

Port lotniczy Broome

Broome, Australia

Szerokość geograficzna: 17-57S, Długość geograficzna: 122-13E, wysokość: 17 m

Aktualna obserwacja pogody

Raport powstał 38 minut temu, godzina 10:30 UTC
Wiatr 7 kt od zachód
Temperatura 23°C
Wilgotność 69%
Ciśnienie 1013 hPa
Widzialność 10 km lub więcej

METAR: YBRM 171030Z AUTO 26007KT 9999 // NCD 23/17 Q1013 RF00.0/000.0

czas: 19:08 (11:08 UTC)

Prognoza

Raport powstał 5 godziny i 59 minut temu, godzina 05:09 UTC
Prognoza ważna od 17 godzina 06 UTC do 18 godzina 06 UTC
Wiatr 8 kt od południowy zachód
Widzialność 10 km lub więcej
Brak chmur poniżej 1500 m i brak chmur cumulonimbus
Od 17 godzina 1600 UTC
Wiatr 6 kt od południowy wschód
Widzialność 10 km lub więcej
Brak chmur poniżej 1500 m i brak chmur cumulonimbus
Od 18 godzina 0400 UTC
Wiatr 10 kt od południe
Widzialność 10 km lub więcej
Brak chmur poniżej 1500 m i brak chmur cumulonimbus

TAF: YBRM 170509Z 1706/1806 22008KT CAVOK FM171600 13006KT CAVOK FM180400 18010KT CAVOK

Obserwacja i prognoza pogody dla ponad 4000 lotnisk (raport METAR i TAF).

Dostępne stacje oznaczono żółtymi i czerwonymi punktami na mapie.

Najedź kursorem aby zobaczyć nazwę stacji.

Kliknij aby zobaczyć obserwacje i prognozy pogody.

Aby zmienić mapę: kliknij na zielony przycisk z czarnym krzyżykiem, aby powiększyć; na zielony przycisk z myślnikiem, aby pomniejszyć; na zielone strzałki, aby przejść do map sąsiednich.


METAR-TAF: